Time;durP1;ratioP1;P1;durP2;ratioP2;P2;SDS_P1;SDS_P2;PMS_P1;PMS_P2;Temp;Humidity;BMP_temperature;BMP_pressure;BME280_temperature;BME280_humidity;BME280_pressure;Samples;Min_cycle;Max_cycle;Signal;HPM_P1;HPM_P2
2022/02/22 00:01:25;;;;;;;24.98;14.02;;;;;;;;;;4951524;29;20043;-64
2022/02/22 00:04:15;;;;;;;22.15;13.55;;;;;;;;;;4900610;29;20044;-64
2022/02/22 00:06:46;;;;;;;22.17;12.80;;;;;;;;;;4931989;29;20055;-64
2022/02/22 00:09:16;;;;;;;25.20;13.35;;;;;;;;;;4932129;29;20393;-65
2022/02/22 00:11:47;;;;;;;24.40;13.60;;;;;;;;;;4884862;29;20060;-64
2022/02/22 00:14:17;;;;;;;30.17;13.35;;;;;;;;;;4912847;29;20059;-65
2022/02/22 00:16:48;;;;;;;22.10;13.73;;;;;;;;;;4897029;29;20173;-64
2022/02/22 00:19:18;;;;;;;24.33;14.10;;;;;;;;;;4912847;29;20064;-64
2022/02/22 00:21:48;;;;;;;23.33;13.60;;;;;;;;;;4912909;29;20421;-64
2022/02/22 00:24:19;;;;;;;22.85;13.80;;;;;;;;;;4913109;29;20067;-64
2022/02/22 00:26:49;;;;;;;24.13;14.23;;;;;;;;;;4913209;29;20060;-64
2022/02/22 00:29:20;;;;;;;25.33;14.38;;;;;;;;;;4881515;29;20538;-65
2022/02/22 00:31:50;;;;;;;30.70;17.90;;;;;;;;;;4885165;29;20680;-64
2022/02/22 00:34:20;;;;;;;32.40;18.75;;;;;;;;;;4931538;29;20051;-64
2022/02/22 00:36:51;;;;;;;30.10;18.60;;;;;;;;;;4931690;29;20419;-64
2022/02/22 00:39:22;;;;;;;32.17;18.92;;;;;;;;;;4931819;29;20416;-64
2022/02/22 00:41:52;;;;;;;34.47;19.17;;;;;;;;;;4941301;29;20063;-64
2022/02/22 00:44:23;;;;;;;31.65;18.02;;;;;;;;;;4951031;29;20054;-65
2022/02/22 00:46:54;;;;;;;29.65;18.30;;;;;;;;;;4950636;29;20585;-65
2022/02/22 00:49:24;;;;;;;28.40;17.80;;;;;;;;;;4893441;29;20053;-64
2022/02/22 00:51:55;;;;;;;26.05;16.10;;;;;;;;;;4862765;29;20048;-64
2022/02/22 00:54:25;;;;;;;21.35;13.93;;;;;;;;;;4902806;29;20555;-64
2022/02/22 00:56:56;;;;;;;23.15;14.10;;;;;;;;;;4912549;29;20044;-65
2022/02/22 00:59:26;;;;;;;21.58;12.93;;;;;;;;;;4912704;29;20064;-64
2022/02/22 01:01:56;;;;;;;22.13;12.85;;;;;;;;;;4881139;29;20454;-64
2022/02/22 01:04:26;;;;;;;20.48;12.90;;;;;;;;;;4912659;29;20052;-64
2022/02/22 01:06:58;;;;;;;21.85;13.05;;;;;;;;;;4912401;29;20087;-64
2022/02/22 01:09:29;;;;;;;20.77;11.65;;;;;;;;;;4867075;29;20536;-64
2022/02/22 01:12:00;;;;;;;16.05;8.77;;;;;;;;;;4890433;29;20052;-66
2022/02/22 01:14:30;;;;;;;14.80;8.10;;;;;;;;;;4931264;29;20483;-65
2022/02/22 01:17:01;;;;;;;13.73;7.70;;;;;;;;;;4931260;29;20056;-64
2022/02/22 01:19:32;;;;;;;12.85;8.05;;;;;;;;;;4931395;29;20141;-64
2022/02/22 01:22:02;;;;;;;13.52;7.38;;;;;;;;;;4915469;29;20064;-64
2022/02/22 01:24:33;;;;;;;11.90;7.63;;;;;;;;;;4915450;29;20090;-64
2022/02/22 01:27:05;;;;;;;13.32;7.95;;;;;;;;;;4956285;28;20058;-64
2022/02/22 01:29:35;;;;;;;11.77;6.78;;;;;;;;;;5011134;28;20045;-64
2022/02/22 01:32:06;;;;;;;11.77;7.53;;;;;;;;;;4995861;28;20057;-64
2022/02/22 01:34:36;;;;;;;11.52;7.00;;;;;;;;;;4980255;28;20402;-64
2022/02/22 01:37:06;;;;;;;12.57;6.80;;;;;;;;;;4997876;28;20069;-64
2022/02/22 01:39:37;;;;;;;9.88;5.90;;;;;;;;;;4957728;28;20404;-64
2022/02/22 01:42:07;;;;;;;7.22;4.07;;;;;;;;;;4973205;28;20055;-64
2022/02/22 01:44:37;;;;;;;6.13;3.60;;;;;;;;;;4973310;28;20055;-64
2022/02/22 01:47:11;;;;;;;;;;;;;;;;;;4973846;28;20062;-64
2022/02/22 01:49:42;;;;;;;7.55;4.18;;;;;;;;;;4941193;28;19922;-64
2022/02/22 01:52:13;;;;;;;8.98;4.50;;;;;;;;;;4973276;28;20058;-64
2022/02/22 01:54:45;;;;;;;7.00;3.63;;;;;;;;;;4973268;28;20051;-64
2022/02/22 01:57:18;;;;;;;6.82;3.78;;;;;;;;;;4973122;28;20070;-64
2022/02/22 01:59:50;;;;;;;6.05;3.75;;;;;;;;;;4940707;28;21103;-64
2022/02/22 02:02:21;;;;;;;5.60;3.30;;;;;;;;;;4957345;28;20055;-64
2022/02/22 02:04:51;;;;;;;6.43;3.08;;;;;;;;;;4953684;29;20068;-63
2022/02/22 02:07:21;;;;;;;5.97;2.95;;;;;;;;;;4915331;29;20071;-64
2022/02/22 02:09:51;;;;;;;5.53;2.92;;;;;;;;;;4915304;29;20087;-64
2022/02/22 02:12:22;;;;;;;6.75;3.40;;;;;;;;;;4915438;29;20182;-64
2022/02/22 02:14:52;;;;;;;6.32;3.53;;;;;;;;;;4915283;29;20056;-64
2022/02/22 02:17:22;;;;;;;6.50;3.40;;;;;;;;;;4909773;29;20059;-64
2022/02/22 02:19:52;;;;;;;6.47;3.63;;;;;;;;;;4934241;29;20067;-64
2022/02/22 02:22:22;;;;;;;5.07;3.40;;;;;;;;;;4934546;29;20059;-64
2022/02/22 02:24:53;;;;;;;6.40;3.42;;;;;;;;;;4934036;29;20528;-64
2022/02/22 02:27:24;;;;;;;5.38;3.03;;;;;;;;;;4934206;29;20460;-64
2022/02/22 02:29:59;;;;;;;5.65;2.90;;;;;;;;;;4933616;29;20078;-64
2022/02/22 02:32:30;;;;;;;7.28;3.53;;;;;;;;;;4914663;29;20052;-64
2022/02/22 02:35:00;;;;;;;10.65;3.50;;;;;;;;;;4914778;29;20160;-64
2022/02/22 02:37:31;;;;;;;7.22;3.40;;;;;;;;;;4914561;29;20560;-64
2022/02/22 02:40:06;;;;;;;6.90;3.25;;;;;;;;;;4914780;29;20064;-64
2022/02/22 02:42:43;;;;;;;5.90;3.10;;;;;;;;;;4913970;29;20052;-64
2022/02/22 02:45:14;;;;;;;8.07;3.30;;;;;;;;;;4918289;29;20184;-65
2022/02/22 02:47:44;;;;;;;5.53;3.40;;;;;;;;;;4933625;29;20059;-64
2022/02/22 02:50:16;;;;;;;5.95;3.70;;;;;;;;;;4933623;29;20052;-64
2022/02/22 02:52:45;;;;;;;6.85;3.55;;;;;;;;;;4914569;29;20052;-65
2022/02/22 02:55:16;;;;;;;8.75;3.80;;;;;;;;;;4914347;29;20060;-64
2022/02/22 02:57:47;;;;;;;7.75;4.45;;;;;;;;;;4914486;29;20621;-65
2022/02/22 03:00:18;;;;;;;7.25;3.70;;;;;;;;;;4914610;29;20071;-64
2022/02/22 03:02:49;;;;;;;7.25;4.40;;;;;;;;;;4914380;29;20055;-64
2022/02/22 03:05:21;;;;;;;7.70;3.63;;;;;;;;;;4914530;29;20146;-64
2022/02/22 03:07:54;;;;;;;9.40;4.00;;;;;;;;;;4902661;29;20057;-64
2022/02/22 03:10:25;;;;;;;6.82;3.72;;;;;;;;;;4918573;29;20424;-64
2022/02/22 03:12:56;;;;;;;6.75;3.90;;;;;;;;;;4933452;29;20052;-64
2022/02/22 03:15:26;;;;;;;7.85;4.15;;;;;;;;;;4945130;29;20063;-64
2022/02/22 03:17:56;;;;;;;8.88;4.25;;;;;;;;;;4932947;29;20385;-64
2022/02/22 03:20:27;;;;;;;7.88;3.95;;;;;;;;;;4933104;29;20059;-64
2022/02/22 03:22:57;;;;;;;7.25;3.97;;;;;;;;;;4962611;28;20067;-64
2022/02/22 03:25:28;;;;;;;7.45;4.00;;;;;;;;;;4971448;28;20613;-64
2022/02/22 03:28:00;;;;;;;7.53;3.88;;;;;;;;;;4971585;28;20530;-64
2022/02/22 03:30:32;;;;;;;7.30;3.92;;;;;;;;;;4981698;28;20195;-64
2022/02/22 03:33:03;;;;;;;9.05;3.97;;;;;;;;;;4990673;28;20054;-64
2022/02/22 03:35:33;;;;;;;7.00;3.72;;;;;;;;;;4990487;28;20058;-64
2022/02/22 03:38:03;;;;;;;7.45;4.40;;;;;;;;;;4990572;28;20061;-64
2022/02/22 03:40:34;;;;;;;8.15;4.25;;;;;;;;;;4990535;28;20073;-64
2022/02/22 03:43:05;;;;;;;6.00;3.88;;;;;;;;;;4990600;28;20061;-64
2022/02/22 03:45:36;;;;;;;7.72;4.07;;;;;;;;;;4970695;28;20047;-64
2022/02/22 03:48:06;;;;;;;7.03;4.00;;;;;;;;;;4971020;28;20058;-64
2022/02/22 03:50:36;;;;;;;7.78;4.20;;;;;;;;;;4970905;28;20062;-64
2022/02/22 03:53:07;;;;;;;6.88;4.30;;;;;;;;;;4951598;28;20047;-64
2022/02/22 03:55:38;;;;;;;6.70;4.07;;;;;;;;;;4941078;28;20052;-64
2022/02/22 03:58:09;;;;;;;9.00;4.15;;;;;;;;;;4917016;29;20051;-64
2022/02/22 04:00:39;;;;;;;10.25;4.85;;;;;;;;;;4953281;28;20059;-64
2022/02/22 04:03:10;;;;;;;8.48;4.10;;;;;;;;;;4913028;29;20056;-64
2022/02/22 04:05:46;;;;;;;6.90;3.78;;;;;;;;;;4897834;29;20051;-64
2022/02/22 04:08:16;;;;;;;10.05;4.18;;;;;;;;;;4875459;29;20049;-64
2022/02/22 04:10:47;;;;;;;8.73;4.05;;;;;;;;;;4875231;29;20060;-64
2022/02/22 04:13:17;;;;;;;6.85;4.25;;;;;;;;;;4860340;29;20068;-64
2022/02/22 04:15:48;;;;;;;6.90;4.38;;;;;;;;;;4875639;29;20067;-64
2022/02/22 04:18:18;;;;;;;6.05;3.88;;;;;;;;;;4875559;29;20065;-64
2022/02/22 04:20:49;;;;;;;9.00;4.28;;;;;;;;;;4893827;29;20064;-64
2022/02/22 04:23:20;;;;;;;6.95;4.15;;;;;;;;;;4894021;29;20064;-64
2022/02/22 04:25:50;;;;;;;9.95;4.20;;;;;;;;;;4878216;29;20053;-64
2022/02/22 04:28:20;;;;;;;7.68;4.10;;;;;;;;;;4894027;29;20061;-64
2022/02/22 04:30:52;;;;;;;12.75;4.63;;;;;;;;;;4904199;29;20424;-64
2022/02/22 04:33:23;;;;;;;9.63;4.03;;;;;;;;;;4865960;29;20063;-64
2022/02/22 04:35:53;;;;;;;7.07;4.07;;;;;;;;;;4896457;29;20056;-64
2022/02/22 04:38:23;;;;;;;9.73;4.07;;;;;;;;;;4912793;29;20064;-64
2022/02/22 04:40:55;;;;;;;6.78;4.03;;;;;;;;;;4910146;29;20062;-64
2022/02/22 04:43:25;;;;;;;7.00;3.90;;;;;;;;;;4950737;29;20054;-64
2022/02/22 04:45:56;;;;;;;8.25;4.50;;;;;;;;;;4930966;29;20056;-64
2022/02/22 04:48:26;;;;;;;7.45;4.07;;;;;;;;;;4941644;28;20059;-64
2022/02/22 04:50:58;;;;;;;9.70;4.38;;;;;;;;;;4970183;28;20047;-64
2022/02/22 04:53:28;;;;;;;7.95;4.70;;;;;;;;;;4969984;28;20062;-64
2022/02/22 04:55:59;;;;;;;8.98;4.53;;;;;;;;;;4922590;28;20095;-64
2022/02/22 04:58:29;;;;;;;8.77;4.43;;;;;;;;;;4947260;28;20495;-64
2022/02/22 05:01:00;;;;;;;8.15;4.78;;;;;;;;;;4956679;28;20046;-64
2022/02/22 05:03:31;;;;;;;8.05;4.40;;;;;;;;;;4973127;28;20054;-65
2022/02/22 05:06:01;;;;;;;10.25;4.60;;;;;;;;;;4988551;28;20046;-64
2022/02/22 05:08:32;;;;;;;7.93;4.47;;;;;;;;;;4972980;28;20062;-64
2022/02/22 05:11:03;;;;;;;7.88;5.05;;;;;;;;;;4887033;29;20078;-64
2022/02/22 05:13:33;;;;;;;7.75;4.63;;;;;;;;;;4960565;28;20062;-65
2022/02/22 05:16:05;;;;;;;8.82;4.80;;;;;;;;;;4969568;28;20055;-64
2022/02/22 05:18:36;;;;;;;9.60;5.05;;;;;;;;;;4938872;28;20066;-64
2022/02/22 05:21:06;;;;;;;9.90;4.88;;;;;;;;;;4969521;28;20436;-64
2022/02/22 05:23:37;;;;;;;9.25;4.70;;;;;;;;;;4969809;28;20063;-64
2022/02/22 05:26:11;;;;;;;9.10;4.50;;;;;;;;;;4953675;28;20063;-64
2022/02/22 05:28:44;;;;;;;11.30;5.28;;;;;;;;;;4954141;28;20070;-64
2022/02/22 05:31:16;;;;;;;10.02;5.63;;;;;;;;;;4969731;28;20046;-64
2022/02/22 05:33:47;;;;;;;9.02;4.30;;;;;;;;;;4921885;28;20055;-64
2022/02/22 05:36:20;;;;;;;8.93;5.13;;;;;;;;;;4953686;28;20403;-64
2022/02/22 05:38:51;;;;;;;10.20;4.90;;;;;;;;;;4969674;28;20067;-65
2022/02/22 05:41:21;;;;;;;9.43;5.05;;;;;;;;;;4930804;29;20056;-64
2022/02/22 05:43:51;;;;;;;8.35;5.13;;;;;;;;;;4931141;29;20082;-65
2022/02/22 05:46:22;;;;;;;9.45;5.22;;;;;;;;;;4930908;29;20055;-64
2022/02/22 05:48:52;;;;;;;9.90;5.00;;;;;;;;;;4954475;28;20094;-64
2022/02/22 05:51:22;;;;;;;9.38;4.88;;;;;;;;;;4969637;28;20051;-64
2022/02/22 05:53:53;;;;;;;8.90;4.65;;;;;;;;;;4969030;28;20046;-64
2022/02/22 05:56:23;;;;;;;9.80;5.32;;;;;;;;;;4922247;28;20058;-64
2022/02/22 05:58:53;;;;;;;9.60;5.38;;;;;;;;;;4969720;28;20066;-64
2022/02/22 06:01:23;;;;;;;10.48;5.45;;;;;;;;;;4969407;28;20483;-64
2022/02/22 06:03:53;;;;;;;9.30;5.65;;;;;;;;;;4937504;28;20074;-64
2022/02/22 06:06:23;;;;;;;10.77;5.75;;;;;;;;;;4937271;28;20077;-64
2022/02/22 06:08:54;;;;;;;10.68;5.63;;;;;;;;;;4937362;28;20055;-64
2022/02/22 06:11:24;;;;;;;9.20;5.40;;;;;;;;;;4953413;28;20055;-64
2022/02/22 06:13:54;;;;;;;11.38;6.20;;;;;;;;;;4949676;29;20063;-65
2022/02/22 06:16:25;;;;;;;11.95;5.88;;;;;;;;;;4918253;29;20092;-65
2022/02/22 06:18:56;;;;;;;11.65;5.70;;;;;;;;;;4946578;28;20530;-65
2022/02/22 06:21:26;;;;;;;10.73;6.15;;;;;;;;;;4941399;28;20062;-64
2022/02/22 06:23:56;;;;;;;13.27;6.82;;;;;;;;;;4972887;28;20050;-64
2022/02/22 06:26:26;;;;;;;12.27;7.00;;;;;;;;;;4905719;29;20051;-64
2022/02/22 06:28:57;;;;;;;11.50;6.07;;;;;;;;;;4953243;29;20051;-64
2022/02/22 06:31:27;;;;;;;11.23;6.57;;;;;;;;;;4953413;29;20055;-64
2022/02/22 06:33:58;;;;;;;11.77;6.47;;;;;;;;;;4953121;29;20059;-64
2022/02/22 06:36:28;;;;;;;11.52;6.45;;;;;;;;;;4952982;29;20055;-64
2022/02/22 06:38:59;;;;;;;10.63;6.20;;;;;;;;;;4952929;29;20047;-64
2022/02/22 06:41:29;;;;;;;12.02;6.95;;;;;;;;;;4953197;29;20059;-64
2022/02/22 06:43:59;;;;;;;11.30;6.30;;;;;;;;;;4952895;29;20067;-64
2022/02/22 06:46:30;;;;;;;10.02;5.93;;;;;;;;;;4933524;29;20412;-64
2022/02/22 06:49:00;;;;;;;11.57;6.72;;;;;;;;;;4933597;29;20523;-64
2022/02/22 06:51:31;;;;;;;10.82;6.20;;;;;;;;;;4902109;29;20056;-64
2022/02/22 06:54:01;;;;;;;11.77;6.22;;;;;;;;;;4895480;29;20060;-65
2022/02/22 06:56:32;;;;;;;13.35;6.30;;;;;;;;;;4879969;29;20528;-64
2022/02/22 06:59:02;;;;;;;10.07;6.03;;;;;;;;;;4895619;29;20052;-64
2022/02/22 07:01:33;;;;;;;12.07;6.63;;;;;;;;;;4895617;29;20048;-64
2022/02/22 07:04:03;;;;;;;12.38;6.97;;;;;;;;;;4904570;29;20059;-64
2022/02/22 07:06:34;;;;;;;13.07;7.05;;;;;;;;;;4898970;29;20063;-64
2022/02/22 07:09:06;;;;;;;14.00;6.90;;;;;;;;;;4867632;29;20052;-64
2022/02/22 07:11:36;;;;;;;13.50;6.90;;;;;;;;;;4914451;29;20063;-65
2022/02/22 07:14:06;;;;;;;12.30;6.60;;;;;;;;;;4914104;29;20052;-64
2022/02/22 07:16:37;;;;;;;12.75;6.60;;;;;;;;;;4867488;29;20096;-64
2022/02/22 07:19:08;;;;;;;13.43;6.70;;;;;;;;;;4914244;29;20170;-64
2022/02/22 07:21:37;;;;;;;11.07;6.45;;;;;;;;;;4914319;29;20089;-65
2022/02/22 07:24:08;;;;;;;10.25;6.03;;;;;;;;;;4933181;29;20059;-64
2022/02/22 07:26:39;;;;;;;12.40;6.95;;;;;;;;;;4952169;29;20051;-64
2022/02/22 07:29:10;;;;;;;11.93;6.90;;;;;;;;;;4935439;29;20052;-64
2022/02/22 07:31:41;;;;;;;12.20;6.68;;;;;;;;;;4962053;28;20055;-64
2022/02/22 07:34:11;;;;;;;13.98;7.10;;;;;;;;;;4955038;28;20073;-64
2022/02/22 07:36:45;;;;;;;11.82;6.60;;;;;;;;;;4971143;28;20059;-64
2022/02/22 07:39:16;;;;;;;12.73;6.70;;;;;;;;;;4954869;28;20063;-64
2022/02/22 07:41:46;;;;;;;11.90;6.70;;;;;;;;;;4993129;28;20058;-65
2022/02/22 07:44:16;;;;;;;13.75;6.97;;;;;;;;;;5012483;28;20486;-64
2022/02/22 07:46:47;;;;;;;24.17;7.90;;;;;;;;;;4957729;28;20173;-65
2022/02/22 07:49:17;;;;;;;12.52;6.38;;;;;;;;;;4943187;28;20083;-64
2022/02/22 07:51:48;;;;;;;12.75;6.97;;;;;;;;;;4932312;29;20475;-65
2022/02/22 07:54:18;;;;;;;13.35;7.20;;;;;;;;;;4932448;29;20071;-64
2022/02/22 07:56:48;;;;;;;11.48;6.75;;;;;;;;;;4932723;29;20047;-64
2022/02/22 07:59:19;;;;;;;14.63;7.00;;;;;;;;;;4885429;29;20739;-64
2022/02/22 08:01:50;;;;;;;12.48;6.75;;;;;;;;;;4901049;29;20071;-65
2022/02/22 08:04:20;;;;;;;11.07;6.32;;;;;;;;;;4932283;29;20055;-64
2022/02/22 08:06:51;;;;;;;13.75;6.40;;;;;;;;;;4869786;29;20052;-65
2022/02/22 08:09:21;;;;;;;13.52;6.28;;;;;;;;;;4916579;29;20055;-64
2022/02/22 08:11:52;;;;;;;13.18;6.70;;;;;;;;;;4932235;29;20055;-64
2022/02/22 08:14:22;;;;;;;14.15;7.25;;;;;;;;;;4916105;29;20521;-64
2022/02/22 08:17:02;;;;;;;13.15;8.13;;;;;;;;;;4916084;29;20063;-64
2022/02/22 08:19:33;;;;;;;13.18;7.03;;;;;;;;;;4917722;29;20052;-64
2022/02/22 08:22:04;;;;;;;12.27;6.88;;;;;;;;;;4932113;29;20095;-64
2022/02/22 08:24:34;;;;;;;12.38;6.38;;;;;;;;;;4923493;29;20075;-64
2022/02/22 08:27:04;;;;;;;13.88;7.47;;;;;;;;;;4900287;29;20063;-64
2022/02/22 08:29:35;;;;;;;15.43;6.88;;;;;;;;;;4916690;28;20054;-64
2022/02/22 08:32:05;;;;;;;14.50;7.32;;;;;;;;;;4989781;28;20169;-64
2022/02/22 08:34:36;;;;;;;13.50;7.07;;;;;;;;;;4931885;29;20051;-64
2022/02/22 08:37:06;;;;;;;12.70;7.07;;;;;;;;;;4931346;29;20063;-64
2022/02/22 08:39:36;;;;;;;15.73;6.63;;;;;;;;;;4931875;29;20063;-64
2022/02/22 08:42:09;;;;;;;12.90;7.45;;;;;;;;;;4930956;29;20103;-64
2022/02/22 08:44:40;;;;;;;12.27;7.18;;;;;;;;;;4931841;29;20385;-64
2022/02/22 08:47:10;;;;;;;13.18;7.40;;;;;;;;;;4915726;29;20435;-64
2022/02/22 08:49:42;;;;;;;13.90;7.15;;;;;;;;;;4931492;29;20059;-64
2022/02/22 08:52:12;;;;;;;13.75;7.05;;;;;;;;;;4900582;29;20063;-64
2022/02/22 08:54:50;;;;;;;14.73;7.75;;;;;;;;;;4899942;29;20067;-64
2022/02/22 08:57:20;;;;;;;11.63;6.90;;;;;;;;;;4931622;29;20545;-64
2022/02/22 08:59:50;;;;;;;14.68;7.45;;;;;;;;;;4931556;29;20060;-64
2022/02/22 09:02:20;;;;;;;14.52;7.45;;;;;;;;;;4931458;29;20402;-64
2022/02/22 09:04:51;;;;;;;13.70;7.57;;;;;;;;;;4931564;29;20048;-64
2022/02/22 09:07:21;;;;;;;15.15;8.35;;;;;;;;;;4931434;29;20431;-64
2022/02/22 09:09:52;;;;;;;13.55;7.80;;;;;;;;;;4915666;29;20477;-64
2022/02/22 09:12:22;;;;;;;14.05;7.35;;;;;;;;;;4915336;29;20051;-64
2022/02/22 09:14:54;;;;;;;13.02;7.35;;;;;;;;;;4910528;29;20063;-64
2022/02/22 09:17:24;;;;;;;15.20;8.65;;;;;;;;;;4919181;29;20059;-64
2022/02/22 09:19:55;;;;;;;15.30;7.80;;;;;;;;;;4950302;29;20054;-65
2022/02/22 09:22:26;;;;;;;12.77;7.68;;;;;;;;;;4918633;29;20055;-64
2022/02/22 09:24:56;;;;;;;14.88;7.43;;;;;;;;;;4950231;29;20055;-64
2022/02/22 09:27:26;;;;;;;13.55;7.90;;;;;;;;;;4950082;29;20055;-64
2022/02/22 09:29:57;;;;;;;14.55;7.57;;;;;;;;;;4950681;29;20062;-65
2022/02/22 09:32:28;;;;;;;14.73;7.43;;;;;;;;;;4950370;29;20071;-65
2022/02/22 09:34:58;;;;;;;14.85;8.07;;;;;;;;;;4912135;29;20048;-65
2022/02/22 09:37:29;;;;;;;13.88;8.05;;;;;;;;;;4912047;29;20099;-64
2022/02/22 09:40:00;;;;;;;13.65;8.05;;;;;;;;;;4912369;29;21023;-64
2022/02/22 09:42:31;;;;;;;15.52;9.20;;;;;;;;;;4918058;28;20048;-64
2022/02/22 09:45:01;;;;;;;18.05;8.43;;;;;;;;;;4969598;28;20039;-65
2022/02/22 09:47:32;;;;;;;19.10;8.95;;;;;;;;;;4953594;28;20051;-64
2022/02/22 09:50:05;;;;;;;17.58;9.00;;;;;;;;;;4969425;28;20073;-64
2022/02/22 09:52:36;;;;;;;16.30;9.43;;;;;;;;;;4922549;28;20419;-65
2022/02/22 09:55:07;;;;;;;17.83;9.10;;;;;;;;;;4934486;29;20055;-65
2022/02/22 09:57:39;;;;;;;14.88;8.73;;;;;;;;;;4934501;29;20074;-64
2022/02/22 10:00:22;;;;;;;15.20;8.85;;;;;;;;;;4915125;29;20501;-64
2022/02/22 10:02:53;;;;;;;15.57;8.82;;;;;;;;;;4884247;29;20052;-65
2022/02/22 10:05:25;;;;;;;20.25;8.77;;;;;;;;;;4854407;29;20071;-65
2022/02/22 10:08:01;;;;;;;13.80;8.18;;;;;;;;;;4915524;29;20529;-65
2022/02/22 10:10:35;;;;;;;13.55;8.63;;;;;;;;;;4915606;29;20096;-64
2022/02/22 10:13:08;;;;;;;14.57;8.82;;;;;;;;;;4928674;29;20067;-65
2022/02/22 10:15:41;;;;;;;16.10;9.18;;;;;;;;;;4934313;29;20048;-64
2022/02/22 10:18:13;;;;;;;16.90;9.13;;;;;;;;;;4934313;29;20056;-64
2022/02/22 10:20:48;;;;;;;15.63;8.98;;;;;;;;;;4896374;29;20409;-64
2022/02/22 10:23:29;;;;;;;15.63;9.40;;;;;;;;;;4861483;29;20045;-65
2022/02/22 10:26:00;;;;;;;19.13;10.25;;;;;;;;;;4846479;29;20057;-64
2022/02/22 10:28:31;;;;;;;20.45;9.77;;;;;;;;;;4861987;29;20434;-64
2022/02/22 10:31:09;;;;;;;18.90;10.63;;;;;;;;;;4892457;29;20461;-64
2022/02/22 10:33:44;;;;;;;19.15;10.23;;;;;;;;;;4908664;29;20448;-64
2022/02/22 10:36:43;;;;;;;16.38;9.90;;;;;;;;;;4896139;29;20065;-64
2022/02/22 10:39:17;;;;;;;26.23;10.85;;;;;;;;;;4933808;29;20137;-64
2022/02/22 10:41:51;;;;;;;18.63;10.07;;;;;;;;;;4918036;29;20063;-65
2022/02/22 10:44:33;;;;;;;21.38;10.10;;;;;;;;;;4886678;29;20573;-65
2022/02/22 10:47:16;;;;;;;23.08;10.85;;;;;;;;;;4933826;29;20051;-64
2022/02/22 10:49:50;;;;;;;18.67;9.48;;;;;;;;;;4933710;29;20056;-64
2022/02/22 10:52:31;;;;;;;21.35;9.75;;;;;;;;;;4933668;29;20052;-64
2022/02/22 10:55:02;;;;;;;19.17;9.00;;;;;;;;;;4952425;29;20051;-65
2022/02/22 10:57:33;;;;;;;19.55;9.43;;;;;;;;;;4923979;28;20051;-64
2022/02/22 11:00:05;;;;;;;17.48;9.68;;;;;;;;;;4958674;28;20059;-65
2022/02/22 11:02:36;;;;;;;16.70;9.20;;;;;;;;;;4991429;28;20435;-65
2022/02/22 11:05:26;;;;;;;17.40;9.23;;;;;;;;;;4951560;28;20059;-65
2022/02/22 11:07:57;;;;;;;18.38;9.82;;;;;;;;;;4952308;29;20059;-64
2022/02/22 11:10:29;;;;;;;22.20;9.80;;;;;;;;;;4952467;29;20059;-64
2022/02/22 11:13:01;;;;;;;;;;;;;;;;;;4952981;29;20062;-65
2022/02/22 11:15:37;;;;;;;21.10;10.00;;;;;;;;;;4916839;29;19922;-64
2022/02/22 11:18:22;;;;;;;15.35;9.88;;;;;;;;;;4933081;29;20060;-64
2022/02/22 11:20:53;;;;;;;18.20;10.15;;;;;;;;;;4932997;29;20056;-65
2022/02/22 11:23:28;;;;;;;19.48;11.27;;;;;;;;;;4917529;29;20059;-65
2022/02/22 11:26:12;;;;;;;18.48;10.40;;;;;;;;;;4868741;29;20054;-65
2022/02/22 11:28:49;;;;;;;22.88;10.15;;;;;;;;;;4876122;29;20056;-65
2022/02/22 11:31:22;;;;;;;15.57;9.95;;;;;;;;;;4857586;29;20061;-65
2022/02/22 11:34:00;;;;;;;17.77;10.68;;;;;;;;;;4839128;29;20056;-65
2022/02/22 11:36:31;;;;;;;18.83;10.57;;;;;;;;;;4857365;29;20534;-64
2022/02/22 11:39:05;;;;;;;17.38;10.35;;;;;;;;;;4857706;29;20061;-65
2022/02/22 11:41:41;;;;;;;22.15;10.98;;;;;;;;;;4838039;29;20094;-64
2022/02/22 11:44:24;;;;;;;19.38;10.93;;;;;;;;;;4821162;29;20058;-65
2022/02/22 11:46:56;;;;;;;18.30;10.75;;;;;;;;;;4820590;29;20427;-65
2022/02/22 11:49:31;;;;;;;16.65;10.07;;;;;;;;;;4775612;29;20575;-65
2022/02/22 11:52:13;;;;;;;19.73;11.25;;;;;;;;;;4807155;29;20058;-65
2022/02/22 11:54:45;;;;;;;20.10;11.48;;;;;;;;;;4820920;29;20054;-65
2022/02/22 11:57:18;;;;;;;19.58;10.60;;;;;;;;;;4849116;29;20061;-65
2022/02/22 11:59:59;;;;;;;20.35;10.77;;;;;;;;;;4857322;29;20058;-65
2022/02/22 12:02:42;;;;;;;18.17;10.70;;;;;;;;;;4870158;29;20063;-66
2022/02/22 12:05:41;;;;;;;16.38;9.63;;;;;;;;;;4857671;29;20132;-66
2022/02/22 12:08:20;;;;;;;14.43;8.60;;;;;;;;;;4867122;29;20056;-65
2022/02/22 12:11:00;;;;;;;19.08;9.10;;;;;;;;;;4898271;29;20052;-65
2022/02/22 12:13:55;;;;;;;14.20;7.55;;;;;;;;;;4893945;29;20052;-65
2022/02/22 12:16:30;;;;;;;14.77;7.82;;;;;;;;;;4894278;29;20057;-65
2022/02/22 12:19:07;;;;;;;16.17;8.75;;;;;;;;;;4886015;29;20067;-65
2022/02/22 12:21:38;;;;;;;16.60;8.68;;;;;;;;;;4883171;29;20056;-65
2022/02/22 12:24:12;;;;;;;12.55;7.85;;;;;;;;;;4866738;29;20473;-65
2022/02/22 12:26:43;;;;;;;12.73;6.88;;;;;;;;;;4894900;29;20444;-64
2022/02/22 12:29:13;;;;;;;14.68;7.10;;;;;;;;;;4904068;29;20055;-66
2022/02/22 12:31:50;;;;;;;11.90;6.57;;;;;;;;;;4951041;29;20056;-65
2022/02/22 12:34:23;;;;;;;7.00;3.47;;;;;;;;;;4934763;29;20535;-65
2022/02/22 12:36:57;;;;;;;8.40;3.50;;;;;;;;;;4950901;29;20640;-64
2022/02/22 12:39:34;;;;;;;7.30;3.83;;;;;;;;;;4951075;29;20043;-66
2022/02/22 12:42:04;;;;;;;7.32;3.92;;;;;;;;;;4950911;29;20050;-64
2022/02/22 12:44:55;;;;;;;6.70;3.40;;;;;;;;;;4951092;29;20066;-65
2022/02/22 12:47:25;;;;;;;6.65;3.88;;;;;;;;;;4904315;28;20055;-66
2022/02/22 12:50:02;;;;;;;6.65;3.00;;;;;;;;;;4970166;28;20663;-66
2022/02/22 12:52:32;;;;;;;5.95;3.35;;;;;;;;;;4961841;28;20065;-65
2022/02/22 12:55:23;;;;;;;6.25;4.00;;;;;;;;;;5011534;28;20379;-65
2022/02/22 12:58:04;;;;;;;;;;;;;;;;;;4961209;28;20066;-66
2022/02/22 13:00:35;;;;;;;6.65;3.70;;;;;;;;;;5010416;28;19928;-64
2022/02/22 13:03:14;;;;;;;4.90;3.33;;;;;;;;;;4945934;28;20391;-65
2022/02/22 13:05:46;;;;;;;5.75;3.70;;;;;;;;;;5006934;28;20506;-66
2022/02/22 13:08:16;;;;;;;;;;;;;;;;;;5011791;28;20046;-66
2022/02/22 13:10:50;;;;;;;5.40;3.05;;;;;;;;;;4976815;28;20001;-66
2022/02/22 13:13:28;;;;;;;6.20;3.50;;;;;;;;;;4960743;28;20080;-65
2022/02/22 13:16:28;;;;;;;9.60;3.70;;;;;;;;;;4976623;28;20058;-65
2022/02/22 13:19:04;;;;;;;6.18;3.60;;;;;;;;;;4931464;29;20068;-65
2022/02/22 13:21:39;;;;;;;5.38;3.30;;;;;;;;;;4901821;29;20059;-66
2022/02/22 13:24:16;;;;;;;4.95;3.10;;;;;;;;;;4884197;29;20078;-66
2022/02/22 13:26:47;;;;;;;8.63;4.13;;;;;;;;;;4900343;29;20067;-66
2022/02/22 13:29:33;;;;;;;4.93;3.38;;;;;;;;;;4888105;29;20052;-65
2022/02/22 13:32:13;;;;;;;8.65;3.08;;;;;;;;;;4935360;29;20048;-66
2022/02/22 13:34:45;;;;;;;6.30;3.00;;;;;;;;;;4915986;29;20056;-66
2022/02/22 13:37:25;;;;;;;4.65;2.90;;;;;;;;;;4915894;29;20056;-66
2022/02/22 13:40:10;;;;;;;9.75;3.65;;;;;;;;;;4915983;29;20162;-65
2022/02/22 13:42:41;;;;;;;6.25;3.45;;;;;;;;;;4915945;29;20556;-65
2022/02/22 13:45:16;;;;;;;7.43;3.15;;;;;;;;;;4916108;29;20088;-66
2022/02/22 13:47:47;;;;;;;6.03;3.17;;;;;;;;;;4869272;29;20056;-66
2022/02/22 13:50:23;;;;;;;6.55;3.78;;;;;;;;;;4915891;29;20096;-68
2022/02/22 13:53:07;;;;;;;7.15;3.13;;;;;;;;;;4915757;29;20425;-66
2022/02/22 13:55:58;;;;;;;8.40;3.80;;;;;;;;;;4932646;28;20067;-66
2022/02/22 13:58:31;;;;;;;4.75;3.05;;;;;;;;;;4941295;28;20063;-65
2022/02/22 14:01:09;;;;;;;7.43;2.97;;;;;;;;;;4973201;28;20205;-67
2022/02/22 14:03:41;;;;;;;5.45;3.17;;;;;;;;;;4957961;28;20055;-68
2022/02/22 14:06:11;;;;;;;4.95;3.15;;;;;;;;;;4972996;28;20062;-66
2022/02/22 14:08:42;;;;;;;6.05;3.05;;;;;;;;;;4973091;28;20431;-66
2022/02/22 14:11:13;;;;;;;4.68;2.85;;;;;;;;;;4975275;28;20061;-67
2022/02/22 14:13:43;;;;;;;6.20;2.45;;;;;;;;;;4937671;29;20435;-67
2022/02/22 14:16:29;;;;;;;6.85;4.20;;;;;;;;;;4912937;29;20062;-67
2022/02/22 14:19:00;;;;;;;5.15;2.75;;;;;;;;;;4937889;29;21231;-65
2022/02/22 14:21:30;;;;;;;4.70;2.75;;;;;;;;;;4953627;29;20054;-67
2022/02/22 14:24:01;;;;;;;3.30;2.28;;;;;;;;;;4937170;29;20071;-66
2022/02/22 14:26:31;;;;;;;2.42;1.83;;;;;;;;;;4953237;29;20086;-66
2022/02/22 14:29:03;;;;;;;3.78;1.77;;;;;;;;;;4875708;29;20067;-66
2022/02/22 14:31:34;;;;;;;1.77;1.13;;;;;;;;;;4953204;29;20055;-67
2022/02/22 14:34:06;;;;;;;3.92;1.00;;;;;;;;;;4921436;29;20147;-67
2022/02/22 14:36:41;;;;;;;2.83;1.00;;;;;;;;;;4953155;29;20051;-68
2022/02/22 14:39:12;;;;;;;2.05;1.00;;;;;;;;;;4921771;29;20059;-66
2022/02/22 14:41:42;;;;;;;3.78;0.80;;;;;;;;;;4953098;29;20668;-70
2022/02/22 14:44:12;;;;;;;3.97;0.82;;;;;;;;;;4905635;29;20109;-71
2022/02/22 14:46:46;;;;;;;2.65;1.20;;;;;;;;;;4921197;29;20096;-67
2022/02/22 14:49:19;;;;;;;2.30;0.75;;;;;;;;;;4952999;29;20443;-66
2022/02/22 14:51:49;;;;;;;1.35;0.85;;;;;;;;;;4994329;28;20069;-67
2022/02/22 14:54:19;;;;;;;2.17;1.00;;;;;;;;;;5011680;28;20049;-74
2022/02/22 14:56:50;;;;;;;1.08;0.80;;;;;;;;;;4978943;28;20058;-67
2022/02/22 14:59:20;;;;;;;3.60;1.15;;;;;;;;;;4948435;28;20061;-69
2022/02/22 15:01:50;;;;;;;1.15;0.77;;;;;;;;;;4978653;28;20061;-66
2022/02/22 15:04:22;;;;;;;2.00;0.90;;;;;;;;;;4978728;28;20058;-66
2022/02/22 15:06:52;;;;;;;3.88;1.00;;;;;;;;;;5012978;28;20042;-65